createdAt,value
2017-10-06T00:00:43.013Z,2.03
2017-10-06T00:03:10.340Z,2.47
2017-10-06T00:05:37.612Z,2.20
2017-10-06T00:08:04.934Z,2.23
2017-10-06T00:10:32.213Z,2.20
2017-10-06T00:12:59.527Z,1.80
2017-10-06T00:15:26.796Z,2.13
2017-10-06T00:17:54.104Z,2.13
2017-10-06T00:20:21.414Z,1.70
2017-10-06T00:22:48.701Z,1.60
2017-10-06T00:25:15.984Z,2.27
2017-10-06T00:27:43.291Z,2.40
2017-10-06T00:30:10.598Z,2.30
2017-10-06T00:32:37.909Z,2.03
2017-10-06T00:35:05.201Z,2.50
2017-10-06T00:37:32.472Z,2.03
2017-10-06T00:39:59.808Z,2.00
2017-10-06T00:42:27.107Z,1.67
2017-10-06T00:44:54.415Z,2.80
2017-10-06T00:47:21.718Z,1.77
2017-10-06T00:49:49.012Z,2.00
2017-10-06T00:52:16.345Z,1.80
2017-10-06T00:54:43.618Z,2.03
2017-10-06T00:57:10.959Z,1.83
2017-10-06T00:59:38.239Z,2.03
2017-10-06T01:02:05.526Z,2.03
2017-10-06T01:04:32.846Z,1.60
2017-10-06T01:07:00.173Z,1.43
2017-10-06T01:09:27.477Z,1.47
2017-10-06T01:11:54.748Z,1.43
2017-10-06T01:14:22.063Z,1.40
2017-10-06T01:16:49.358Z,1.90
2017-10-06T01:19:16.646Z,1.57
2017-10-06T01:21:43.985Z,1.67
2017-10-06T01:24:11.265Z,1.77
2017-10-06T01:26:38.577Z,1.80
2017-10-06T01:29:05.895Z,1.43
2017-10-06T01:31:33.712Z,1.60
2017-10-06T01:34:01.031Z,1.83
2017-10-06T01:36:28.336Z,1.60
2017-10-06T01:38:55.604Z,1.63
2017-10-06T01:41:23.108Z,1.47
2017-10-06T01:43:50.384Z,1.90
2017-10-06T01:46:17.694Z,1.67
2017-10-06T01:48:44.973Z,1.83
2017-10-06T01:51:12.289Z,1.70
2017-10-06T01:53:39.613Z,2.07
2017-10-06T01:56:06.882Z,1.63
2017-10-06T01:58:34.191Z,1.77
2017-10-06T02:01:01.492Z,1.87
2017-10-06T02:03:28.829Z,1.40
2017-10-06T02:05:56.101Z,1.20
2017-10-06T02:08:23.509Z,2.07
2017-10-06T02:10:50.995Z,1.40
2017-10-06T02:13:18.281Z,1.20
2017-10-06T02:15:45.589Z,2.10
2017-10-06T02:18:12.896Z,1.50
2017-10-06T02:20:40.317Z,1.97
2017-10-06T02:23:07.653Z,2.00
2017-10-06T02:25:34.955Z,1.70
2017-10-06T02:28:02.246Z,2.50
2017-10-06T02:30:29.637Z,1.73
2017-10-06T02:32:56.896Z,2.10
2017-10-06T02:35:24.204Z,3.00
2017-10-06T02:37:51.517Z,1.80
2017-10-06T02:40:18.828Z,2.40
2017-10-06T02:42:46.156Z,1.77
2017-10-06T02:45:13.435Z,2.00
2017-10-06T02:47:40.713Z,2.13
2017-10-06T02:50:08.016Z,2.03
2017-10-06T02:52:35.299Z,1.73
2017-10-06T02:55:02.607Z,2.60
2017-10-06T02:57:29.931Z,1.67
2017-10-06T02:59:57.220Z,1.80
2017-10-06T03:02:24.532Z,1.80
2017-10-06T03:04:51.840Z,1.87
2017-10-06T03:07:19.143Z,2.10
2017-10-06T03:09:46.446Z,1.90
2017-10-06T03:12:13.715Z,1.83
2017-10-06T03:14:41.007Z,1.90
2017-10-06T03:17:08.336Z,1.60
2017-10-06T03:19:35.646Z,1.77
2017-10-06T03:22:02.920Z,2.23
2017-10-06T03:24:30.237Z,1.90
2017-10-06T03:26:57.514Z,2.17
2017-10-06T03:29:24.841Z,1.90
2017-10-06T03:31:52.306Z,1.93
2017-10-06T03:34:19.576Z,2.23
2017-10-06T03:36:46.932Z,2.00
2017-10-06T03:39:14.218Z,1.60
2017-10-06T03:41:41.501Z,1.73
2017-10-06T03:44:08.866Z,1.70
2017-10-06T03:46:36.181Z,1.90
2017-10-06T03:49:03.445Z,2.20
2017-10-06T03:51:30.766Z,1.63
2017-10-06T03:53:58.148Z,1.97
2017-10-06T03:56:25.457Z,2.27
2017-10-06T03:58:52.766Z,1.93
2017-10-06T04:01:20.094Z,1.70
2017-10-06T04:03:47.405Z,2.43
2017-10-06T04:06:14.718Z,2.10
2017-10-06T04:08:42.008Z,1.70
2017-10-06T04:11:09.311Z,2.33
2017-10-06T04:13:36.631Z,2.90
2017-10-06T04:16:03.940Z,1.97
2017-10-06T04:18:31.248Z,2.13
2017-10-06T04:20:58.516Z,2.13
2017-10-06T04:23:25.844Z,2.07
2017-10-06T04:25:53.140Z,2.10
2017-10-06T04:28:21.267Z,2.40
2017-10-06T04:30:48.573Z,2.57
2017-10-06T04:33:15.880Z,2.00
2017-10-06T04:35:43.172Z,2.37
2017-10-06T04:38:10.487Z,2.50
2017-10-06T04:40:37.778Z,1.93
2017-10-06T04:43:05.063Z,2.63
2017-10-06T04:45:32.343Z,2.10
2017-10-06T04:47:59.644Z,1.90
2017-10-06T04:50:26.916Z,1.60
2017-10-06T04:52:54.257Z,2.70
2017-10-06T04:55:21.541Z,1.90
2017-10-06T04:57:48.935Z,1.50
2017-10-06T05:00:16.188Z,2.80
2017-10-06T05:02:43.460Z,1.93
2017-10-06T05:05:10.765Z,1.93
2017-10-06T05:07:38.025Z,1.90
2017-10-06T05:10:05.356Z,3.50
2017-10-06T05:12:32.805Z,2.17
2017-10-06T05:15:00.112Z,2.90
2017-10-06T05:17:27.491Z,2.43
2017-10-06T05:19:54.781Z,2.37
2017-10-06T05:22:22.355Z,2.70
2017-10-06T05:24:49.669Z,2.37
2017-10-06T05:27:16.953Z,2.20
2017-10-06T05:29:44.302Z,2.73
2017-10-06T05:32:11.575Z,2.50
2017-10-06T05:34:38.890Z,2.00
2017-10-06T05:37:06.155Z,2.47
2017-10-06T05:39:33.453Z,2.33
2017-10-06T05:42:00.725Z,2.47
2017-10-06T05:44:28.052Z,2.63
2017-10-06T05:46:55.340Z,2.27
2017-10-06T05:49:22.676Z,2.80
2017-10-06T05:51:49.965Z,3.23
2017-10-06T05:54:17.286Z,2.53
2017-10-06T05:56:44.600Z,2.80
2017-10-06T05:59:11.889Z,2.73
2017-10-06T06:01:39.233Z,3.07
2017-10-06T06:04:06.559Z,2.20
2017-10-06T06:06:33.840Z,2.57
2017-10-06T06:09:01.132Z,2.47
2017-10-06T06:11:28.418Z,3.20
2017-10-06T06:13:55.782Z,3.23
2017-10-06T06:16:23.129Z,3.03
2017-10-06T06:18:50.622Z,2.60
2017-10-06T06:21:17.908Z,3.23
2017-10-06T06:23:45.210Z,2.80
2017-10-06T06:26:12.511Z,3.17
2017-10-06T06:28:39.828Z,2.90
2017-10-06T06:31:07.970Z,2.73
2017-10-06T06:33:35.687Z,2.30
2017-10-06T06:36:03.006Z,2.97
2017-10-06T06:38:30.311Z,3.00
2017-10-06T06:40:57.604Z,3.03
2017-10-06T06:43:24.900Z,3.33
2017-10-06T06:45:52.237Z,3.33
2017-10-06T06:48:19.525Z,2.73
2017-10-06T06:50:46.834Z,3.40
2017-10-06T06:53:14.195Z,2.77
2017-10-06T06:55:41.510Z,3.50
2017-10-06T06:58:08.800Z,3.20
2017-10-06T07:00:36.129Z,3.33
2017-10-06T07:03:03.450Z,3.17
2017-10-06T07:05:30.769Z,3.17
2017-10-06T07:07:58.087Z,3.17
2017-10-06T07:10:25.392Z,3.60
2017-10-06T07:12:52.658Z,3.30
2017-10-06T07:15:19.984Z,3.33
2017-10-06T07:17:47.272Z,3.70
2017-10-06T07:20:14.699Z,3.10
2017-10-06T07:22:42.044Z,2.77
2017-10-06T07:25:09.372Z,3.17
2017-10-06T07:27:36.652Z,2.77
2017-10-06T07:30:03.951Z,2.33
2017-10-06T07:32:31.261Z,3.03
2017-10-06T07:34:58.556Z,3.00
2017-10-06T07:37:25.871Z,3.87
2017-10-06T07:39:53.191Z,3.03
2017-10-06T07:42:20.474Z,3.50
2017-10-06T07:44:47.764Z,4.10
2017-10-06T07:47:15.114Z,3.67
2017-10-06T07:49:42.437Z,4.00
2017-10-06T07:52:09.704Z,3.80
2017-10-06T07:54:37.010Z,3.57
2017-10-06T07:57:04.304Z,4.30
2017-10-06T07:59:31.586Z,4.73
2017-10-06T08:01:58.895Z,4.27
2017-10-06T08:04:26.185Z,4.77
2017-10-06T08:06:53.496Z,4.80
2017-10-06T08:09:20.844Z,5.00
2017-10-06T08:11:48.128Z,4.50
2017-10-06T08:14:15.412Z,4.93
2017-10-06T08:16:42.711Z,4.70
2017-10-06T08:19:10.001Z,5.50
2017-10-06T08:21:37.297Z,5.33
2017-10-06T08:24:04.567Z,4.80
2017-10-06T08:26:31.857Z,4.47
2017-10-06T08:28:59.160Z,5.57
2017-10-06T08:31:26.444Z,5.13
2017-10-06T08:33:53.738Z,5.40
2017-10-06T08:36:21.031Z,4.60
2017-10-06T08:38:48.325Z,4.47
2017-10-06T08:41:15.620Z,5.07
2017-10-06T08:43:42.938Z,5.23
2017-10-06T08:46:10.231Z,4.00
2017-10-06T08:48:37.503Z,4.20
2017-10-06T08:51:04.831Z,3.60
2017-10-06T08:53:32.144Z,3.40
2017-10-06T08:55:59.423Z,3.17
2017-10-06T08:58:26.729Z,3.43
2017-10-06T09:00:54.257Z,3.20
2017-10-06T09:03:21.541Z,2.90
2017-10-06T09:05:48.840Z,3.30
2017-10-06T09:08:16.120Z,3.30
2017-10-06T09:10:45.256Z,3.20
2017-10-06T09:13:12.541Z,3.10
2017-10-06T09:15:39.844Z,3.30
2017-10-06T09:18:07.115Z,3.40
2017-10-06T09:20:34.408Z,3.37
2017-10-06T09:23:01.691Z,2.97
2017-10-06T09:25:29.016Z,2.70
2017-10-06T09:27:56.297Z,3.20
2017-10-06T09:30:23.589Z,2.90
2017-10-06T09:32:50.939Z,3.00
2017-10-06T09:35:18.204Z,2.90
2017-10-06T09:37:45.488Z,3.00
2017-10-06T09:40:12.757Z,3.10
2017-10-06T09:42:40.037Z,3.30
2017-10-06T09:45:07.310Z,2.90
2017-10-06T09:47:34.595Z,2.23
2017-10-06T09:50:01.865Z,2.73
2017-10-06T09:52:29.147Z,2.97
2017-10-06T09:54:56.430Z,2.90
2017-10-06T09:57:23.707Z,2.83
2017-10-06T09:59:50.967Z,3.00
2017-10-06T10:02:18.251Z,2.23
2017-10-06T10:04:45.511Z,3.30
2017-10-06T10:07:12.804Z,2.77
2017-10-06T10:09:40.099Z,3.20
2017-10-06T10:12:07.391Z,2.70
2017-10-06T10:14:34.679Z,2.37
2017-10-06T10:17:01.984Z,2.80
2017-10-06T10:19:29.259Z,2.83
2017-10-06T10:21:56.588Z,2.47
2017-10-06T10:24:23.900Z,2.47
2017-10-06T10:26:51.169Z,3.10
2017-10-06T10:29:18.460Z,2.70
2017-10-06T10:31:45.728Z,2.63
2017-10-06T10:34:13.029Z,3.07
2017-10-06T10:36:40.293Z,2.80
2017-10-06T10:39:07.590Z,2.80
2017-10-06T10:41:35.324Z,2.80
2017-10-06T10:44:02.632Z,2.20
2017-10-06T10:46:29.963Z,2.97
2017-10-06T10:48:57.250Z,3.10
2017-10-06T10:51:24.529Z,2.73
2017-10-06T10:53:51.814Z,3.00
2017-10-06T10:56:19.080Z,2.70
2017-10-06T10:58:46.391Z,2.03
2017-10-06T11:01:13.689Z,2.70
2017-10-06T11:03:40.984Z,2.50
2017-10-06T11:06:08.265Z,3.17
2017-10-06T11:08:35.545Z,2.20
2017-10-06T11:11:02.855Z,1.67
2017-10-06T11:13:30.120Z,2.10
2017-10-06T11:15:57.432Z,1.90
2017-10-06T11:18:24.760Z,2.30
2017-10-06T11:20:52.067Z,2.20
2017-10-06T11:23:19.335Z,2.43
2017-10-06T11:25:46.656Z,2.40
2017-10-06T11:28:13.994Z,2.03
2017-10-06T11:30:41.320Z,1.93
2017-10-06T11:33:08.599Z,2.30
2017-10-06T11:35:36.016Z,2.60
2017-10-06T11:38:03.322Z,2.77
2017-10-06T11:40:30.608Z,2.33
2017-10-06T11:42:58.121Z,2.50
2017-10-06T11:45:25.399Z,2.27
2017-10-06T11:47:52.678Z,2.17
2017-10-06T11:50:19.988Z,2.20
2017-10-06T11:52:47.289Z,2.13
2017-10-06T11:55:14.585Z,2.40
2017-10-06T11:57:41.857Z,2.07
2017-10-06T12:00:09.148Z,2.00
2017-10-06T12:02:36.465Z,2.13
2017-10-06T12:05:03.739Z,1.33
2017-10-06T12:07:31.058Z,1.73
2017-10-06T12:09:58.335Z,1.40
2017-10-06T12:12:25.624Z,1.40
2017-10-06T12:14:52.911Z,1.10
2017-10-06T12:17:20.223Z,0.93
2017-10-06T12:19:47.496Z,1.13
2017-10-06T12:22:14.821Z,1.20
2017-10-06T12:24:42.100Z,1.00
2017-10-06T12:27:09.706Z,1.00
2017-10-06T12:29:37.032Z,1.50
2017-10-06T12:32:04.339Z,1.43
2017-10-06T12:34:31.601Z,0.93
2017-10-06T12:36:58.895Z,0.90
2017-10-06T12:39:26.191Z,1.13
2017-10-06T12:41:53.492Z,1.63
2017-10-06T12:44:20.796Z,0.93
2017-10-06T12:46:48.092Z,1.47
2017-10-06T12:49:15.389Z,0.90
2017-10-06T12:51:42.662Z,1.43
2017-10-06T12:54:09.970Z,1.07
2017-10-06T12:56:37.252Z,1.30
2017-10-06T12:59:04.540Z,1.07
2017-10-06T13:01:31.841Z,1.07
2017-10-06T13:03:59.158Z,0.97
2017-10-06T13:06:26.426Z,1.70
2017-10-06T13:08:53.721Z,1.53
2017-10-06T13:11:20.983Z,1.20
2017-10-06T13:13:48.286Z,1.53
2017-10-06T13:16:15.579Z,1.50
2017-10-06T13:18:42.884Z,1.30
2017-10-06T13:21:10.160Z,1.13
2017-10-06T13:23:37.457Z,1.73
2017-10-06T13:26:04.736Z,1.57
2017-10-06T13:28:32.057Z,1.93
2017-10-06T13:30:59.325Z,2.40
2017-10-06T13:33:26.615Z,2.00
2017-10-06T13:35:53.908Z,2.20
2017-10-06T13:38:21.195Z,2.80
2017-10-06T13:40:48.469Z,2.60
2017-10-06T13:43:15.740Z,2.50
2017-10-06T13:45:43.036Z,2.90
2017-10-06T13:48:10.298Z,2.33
2017-10-06T13:50:37.588Z,3.03
2017-10-06T13:53:04.856Z,2.63
2017-10-06T13:55:32.213Z,3.27
2017-10-06T13:57:59.588Z,2.90
2017-10-06T14:00:26.869Z,2.87
2017-10-06T14:02:54.144Z,2.47
2017-10-06T14:05:21.435Z,2.70
2017-10-06T14:07:48.724Z,2.83
2017-10-06T14:10:16.276Z,2.33
2017-10-06T14:12:43.548Z,2.30
2017-10-06T14:15:10.843Z,2.77
2017-10-06T14:17:38.117Z,3.47
2017-10-06T14:20:05.406Z,2.67
2017-10-06T14:22:32.712Z,2.67
2017-10-06T14:24:59.990Z,2.40
2017-10-06T14:27:27.272Z,2.80
2017-10-06T14:29:54.575Z,2.80
2017-10-06T14:32:21.855Z,2.70
2017-10-06T14:34:49.146Z,2.93
2017-10-06T14:37:16.411Z,3.07
2017-10-06T14:39:43.720Z,3.00
2017-10-06T14:42:10.996Z,2.50
2017-10-06T14:44:38.308Z,2.43
2017-10-06T14:47:05.581Z,1.80
2017-10-06T14:49:32.852Z,2.00
2017-10-06T14:52:00.147Z,2.07
2017-10-06T14:54:27.412Z,2.60
2017-10-06T14:56:54.716Z,2.60
2017-10-06T14:59:22.000Z,2.63
2017-10-06T15:01:49.307Z,2.33
2017-10-06T15:04:16.575Z,2.50
2017-10-06T15:06:43.876Z,3.23
2017-10-06T15:09:11.157Z,2.20
2017-10-06T15:11:38.444Z,2.33
2017-10-06T15:14:05.729Z,2.43
2017-10-06T15:16:33.025Z,2.60
2017-10-06T15:19:00.292Z,3.07
2017-10-06T15:21:27.592Z,2.23
2017-10-06T15:23:54.871Z,3.00
2017-10-06T15:26:22.151Z,2.50
2017-10-06T15:28:49.452Z,2.50
2017-10-06T15:31:16.743Z,3.00
2017-10-06T15:33:44.036Z,2.73
2017-10-06T15:36:11.311Z,3.17
2017-10-06T15:38:38.604Z,2.40
2017-10-06T15:41:05.877Z,2.63
2017-10-06T15:43:33.187Z,3.20
2017-10-06T15:46:00.483Z,2.77
2017-10-06T15:48:27.768Z,2.70
2017-10-06T15:50:55.049Z,2.80
2017-10-06T15:53:22.339Z,2.87
2017-10-06T15:55:49.640Z,2.60
2017-10-06T15:58:16.928Z,2.87
2017-10-06T16:00:44.208Z,3.20
2017-10-06T16:03:11.492Z,3.23
2017-10-06T16:05:38.798Z,3.07
2017-10-06T16:08:06.081Z,2.73
2017-10-06T16:10:33.355Z,2.60
2017-10-06T16:13:00.648Z,2.23
2017-10-06T16:15:27.933Z,2.13
2017-10-06T16:17:55.221Z,2.40
2017-10-06T16:20:22.496Z,2.57
2017-10-06T16:22:49.788Z,2.10
2017-10-06T16:25:17.072Z,2.50
2017-10-06T16:27:44.375Z,2.57
2017-10-06T16:30:11.689Z,2.80
2017-10-06T16:32:39.406Z,2.30
2017-10-06T16:35:06.892Z,2.00
2017-10-06T16:37:34.172Z,2.87
2017-10-06T16:40:01.472Z,2.60
2017-10-06T16:42:28.740Z,2.27
2017-10-06T16:44:56.029Z,2.30
2017-10-06T16:47:23.306Z,2.23
2017-10-06T16:49:50.617Z,2.53
2017-10-06T16:52:17.908Z,2.63
2017-10-06T16:54:45.199Z,2.67
2017-10-06T16:57:12.482Z,2.67
2017-10-06T16:59:39.772Z,3.07
2017-10-06T17:02:07.100Z,2.97
2017-10-06T17:04:34.384Z,2.77
2017-10-06T17:07:01.658Z,3.03
2017-10-06T17:09:28.969Z,3.23
2017-10-06T17:11:56.243Z,3.17
2017-10-06T17:14:23.539Z,3.20
2017-10-06T17:16:56.617Z,3.13
2017-10-06T17:19:23.884Z,2.90
2017-10-06T17:21:51.161Z,3.13
2017-10-06T17:24:18.476Z,2.97
2017-10-06T17:26:45.748Z,3.10
2017-10-06T17:29:13.058Z,3.23
2017-10-06T17:31:40.339Z,2.50
2017-10-06T17:34:07.625Z,3.20
2017-10-06T17:36:34.896Z,3.30
2017-10-06T17:39:02.196Z,2.20
2017-10-06T17:41:29.477Z,3.37
2017-10-06T17:43:56.904Z,2.53
2017-10-06T17:46:24.202Z,2.70
2017-10-06T17:48:51.492Z,3.00
2017-10-06T17:51:18.771Z,3.20
2017-10-06T17:53:46.068Z,3.20
2017-10-06T17:56:13.352Z,2.50
2017-10-06T17:58:40.650Z,3.10
2017-10-06T18:01:07.933Z,3.50
2017-10-06T18:03:35.222Z,4.10
2017-10-06T18:06:02.510Z,4.23
2017-10-06T18:08:29.833Z,3.27
2017-10-06T18:10:57.092Z,2.90
2017-10-06T18:13:24.349Z,3.37
2017-10-06T18:15:51.675Z,3.97
2017-10-06T18:18:18.973Z,4.20
2017-10-06T18:20:46.351Z,4.60
2017-10-06T18:23:13.628Z,3.47
2017-10-06T18:25:40.937Z,3.50
2017-10-06T18:28:08.211Z,3.70
2017-10-06T18:30:35.504Z,4.60
2017-10-06T18:33:02.784Z,3.83
2017-10-06T18:35:30.066Z,5.20
2017-10-06T18:37:57.348Z,4.10
2017-10-06T18:40:24.656Z,4.67
2017-10-06T18:42:51.934Z,4.00
2017-10-06T18:45:19.246Z,4.70
2017-10-06T18:47:46.552Z,4.90
2017-10-06T18:50:13.843Z,5.83
2017-10-06T18:52:41.127Z,5.23
2017-10-06T18:55:08.428Z,5.40
2017-10-06T18:57:35.717Z,6.37
2017-10-06T19:00:03.029Z,7.00
2017-10-06T19:02:30.311Z,5.47
2017-10-06T19:04:57.641Z,5.70
2017-10-06T19:07:24.931Z,6.20
2017-10-06T19:09:52.225Z,6.70
2017-10-06T19:12:19.522Z,7.37
2017-10-06T19:14:46.824Z,6.97
2017-10-06T19:17:14.140Z,7.70
2017-10-06T19:19:42.450Z,7.83
2017-10-06T19:22:09.783Z,6.90
2017-10-06T19:24:37.147Z,6.47
2017-10-06T19:27:06.592Z,7.73
2017-10-06T19:29:35.061Z,8.37
2017-10-06T19:32:02.344Z,7.60
2017-10-06T19:34:29.627Z,7.80
2017-10-06T19:36:56.962Z,9.40
2017-10-06T19:39:24.244Z,7.73
2017-10-06T19:41:51.533Z,7.60
2017-10-06T19:44:18.872Z,7.83
2017-10-06T19:46:46.149Z,9.10
2017-10-06T19:49:13.461Z,9.43
2017-10-06T19:51:40.860Z,8.43
2017-10-06T19:54:08.128Z,8.37
2017-10-06T19:56:35.446Z,7.33
2017-10-06T19:59:04.134Z,9.40
2017-10-06T20:01:32.054Z,8.77
2017-10-06T20:03:59.707Z,8.73
2017-10-06T20:06:27.061Z,8.57
2017-10-06T20:08:54.332Z,8.37
2017-10-06T20:11:21.665Z,8.50
2017-10-06T20:13:48.969Z,9.07
2017-10-06T20:16:16.238Z,9.27
2017-10-06T20:18:43.538Z,8.70
2017-10-06T20:21:11.185Z,8.53
2017-10-06T20:23:38.902Z,8.60
2017-10-06T20:26:06.602Z,9.63
2017-10-06T20:28:34.535Z,10.73
2017-10-06T20:31:02.325Z,9.67
2017-10-06T20:33:30.095Z,9.23
2017-10-06T20:35:57.866Z,8.63
2017-10-06T20:38:25.239Z,10.80
2017-10-06T20:40:52.539Z,9.33
2017-10-06T20:43:19.835Z,10.90
2017-10-06T20:45:47.155Z,9.60
2017-10-06T20:48:14.481Z,8.80
2017-10-06T20:50:41.744Z,9.50
2017-10-06T20:53:09.062Z,10.57
2017-10-06T20:55:36.347Z,9.80
2017-10-06T20:58:04.234Z,9.17
2017-10-06T21:00:32.139Z,8.90
2017-10-06T21:02:59.709Z,8.50
2017-10-06T21:05:27.435Z,9.03
2017-10-06T21:07:55.084Z,7.80
2017-10-06T21:10:22.846Z,9.17
2017-10-06T21:12:50.413Z,8.73
2017-10-06T21:15:17.719Z,9.90
2017-10-06T21:17:45.238Z,9.63
2017-10-06T21:20:13.940Z,9.80
2017-10-06T21:22:41.771Z,9.60
2017-10-06T21:25:09.075Z,9.20
2017-10-06T21:27:36.358Z,7.87
2017-10-06T21:30:04.093Z,10.33
2017-10-06T21:32:31.849Z,10.27
2017-10-06T21:34:59.569Z,10.73
2017-10-06T21:37:27.329Z,11.43
2017-10-06T21:39:55.249Z,10.20
2017-10-06T21:42:22.631Z,10.17
2017-10-06T21:44:49.923Z,10.40
2017-10-06T21:47:17.238Z,9.30
2017-10-06T21:49:44.528Z,10.10
2017-10-06T21:52:11.835Z,9.60
2017-10-06T21:54:39.199Z,9.57
2017-10-06T21:57:06.475Z,9.40
2017-10-06T21:59:34.167Z,11.13
2017-10-06T22:02:01.883Z,10.10
2017-10-06T22:04:29.618Z,10.80
2017-10-06T22:06:58.059Z,9.83
2017-10-06T22:09:25.738Z,11.10
2017-10-06T22:11:53.523Z,9.93
2017-10-06T22:14:20.904Z,11.40
2017-10-06T22:16:48.287Z,11.97
2017-10-06T22:19:16.824Z,10.07
2017-10-06T22:21:44.665Z,10.10
2017-10-06T22:24:11.967Z,9.17
2017-10-06T22:26:39.263Z,11.23
2017-10-06T22:29:07.034Z,8.70
2017-10-06T22:31:34.801Z,9.80
2017-10-06T22:34:02.606Z,8.67
2017-10-06T22:36:30.330Z,8.50
2017-10-06T22:38:58.513Z,10.30
2017-10-06T22:41:26.415Z,8.67
2017-10-06T22:43:53.791Z,8.40
2017-10-06T22:46:21.124Z,8.37
2017-10-06T22:48:48.398Z,9.77
2017-10-06T22:51:15.690Z,8.47
2017-10-06T22:53:43.085Z,9.13
2017-10-06T22:56:10.432Z,7.63
2017-10-06T22:58:37.704Z,9.03
2017-10-06T23:01:05.027Z,7.30
2017-10-06T23:03:32.309Z,8.30
2017-10-06T23:05:59.584Z,8.30
2017-10-06T23:08:26.947Z,8.23
2017-10-06T23:10:54.243Z,8.30
2017-10-06T23:13:21.521Z,7.90
2017-10-06T23:15:48.885Z,6.77
2017-10-06T23:18:16.167Z,7.70
2017-10-06T23:20:43.471Z,7.83
2017-10-06T23:23:10.743Z,9.10
2017-10-06T23:25:38.077Z,8.50
2017-10-06T23:28:05.380Z,8.60
2017-10-06T23:30:32.677Z,9.07
2017-10-06T23:32:59.983Z,7.50
2017-10-06T23:35:27.285Z,8.97
2017-10-06T23:37:54.600Z,8.33
2017-10-06T23:40:21.899Z,8.60
2017-10-06T23:42:49.188Z,8.23
2017-10-06T23:45:16.511Z,8.80
2017-10-06T23:47:43.776Z,8.50
2017-10-06T23:50:11.068Z,8.70
2017-10-06T23:52:38.352Z,8.83
2017-10-06T23:55:05.729Z,7.10
2017-10-06T23:57:33.015Z,10.30
